Terminal Aerodrome Forecast
Issued by NWS

Home | Current Version | Previous Version | Text Only | Print | Product List | Glossary On
Versions: 1 2 3 4 5 6 7 8 9 10 11 12 13 14 15 16 17 18 19 20 21 22 23 24 25 26 27 28 29 30 31 32 33 34 35 36 37 38 39 40
321
FTUS43 KDDC 202343 AAD
TAFGCK
TAF AMD
KGCK 202343Z 2100/2124 12015KT P6SM VCSH OVC070
     FM210200 13011KT P6SM OVC040
      TEMPO 2102/2104 5SM -TSRA OVC015CB
     FM210400 12010KT P6SM OVC015
      TEMPO 2104/2106 4SM -SHRA OVC008
     FM210900 11010KT P6SM OVC008 PROB30 2109/2112 4SM -SHRA OVC004
     FM211200 09010KT P6SM OVC003 PROB30 2112/2117 4SM -SHRA OVC006
     FM211700 06010KT P6SM OVC008 PROB30 2117/2118 4SM -SHRA SCT004
      OVC015=

USA.gov is the U.S. government's official web portal to all federal, state and local government web resources and services.